Time;durP1;ratioP1;P1;durP2;ratioP2;P2;SDS_P1;SDS_P2;PMS_P1;PMS_P2;Temp;Humidity;BMP_temperature;BMP_pressure;BME280_temperature;BME280_humidity;BME280_pressure;Samples;Min_cycle;Max_cycle;Signal;HPM_P1;HPM_P2
2023/12/28 00:01:51;;;;;;;32.25;6.18;;;10.90;99.90;;;;;;5036533;28;20045;-62
2023/12/28 00:04:18;;;;;;;34.35;7.50;;;10.90;99.90;;;;;;5036313;28;20045;-61
2023/12/28 00:06:45;;;;;;;32.95;5.63;;;11.00;99.90;;;;;;5036522;28;20046;-61
2023/12/28 00:09:11;;;;;;;26.55;4.88;;;11.00;99.90;;;;;;5036340;28;20037;-61
2023/12/28 00:11:38;;;;;;;29.55;5.47;;;11.00;99.90;;;;;;5034955;28;20041;-61
2023/12/28 00:14:05;;;;;;;31.33;7.28;;;11.10;99.90;;;;;;5036334;28;20052;-61
2023/12/28 00:16:33;;;;;;;37.10;6.47;;;11.10;99.90;;;;;;5035118;28;20544;-61
2023/12/28 00:19:02;;;;;;;29.73;6.22;;;11.20;99.90;;;;;;5036206;28;20483;-61
2023/12/28 00:21:29;;;;;;;29.17;5.75;;;11.20;99.90;;;;;;5036046;28;20100;-61
2023/12/28 00:23:56;;;;;;;32.63;5.47;;;11.20;99.90;;;;;;5036027;28;20116;-57
2023/12/28 00:26:22;;;;;;;31.88;5.78;;;11.30;99.90;;;;;;5036272;28;20103;-55
2023/12/28 00:29:01;;;;;;;27.35;5.45;;;11.30;99.90;;;;;;5036555;28;20099;-58
2023/12/28 00:31:28;;;;;;;28.33;6.32;;;11.30;99.90;;;;;;5034495;28;20046;-57
2023/12/28 00:33:55;;;;;;;33.50;6.78;;;11.30;99.90;;;;;;5035568;28;20505;-57
2023/12/28 00:36:23;;;;;;;28.90;5.57;;;11.30;99.90;;;;;;5034625;28;20033;-56
2023/12/28 00:38:50;;;;;;;25.38;5.35;;;11.30;99.90;;;;;;5034609;28;20049;-56
2023/12/28 00:41:16;;;;;;;33.15;6.38;;;11.30;99.90;;;;;;5035883;28;20374;-58
2023/12/28 00:43:43;;;;;;;35.33;6.22;;;11.30;99.90;;;;;;5033956;28;20048;-58
2023/12/28 00:46:10;;;;;;;31.48;6.25;;;11.30;99.90;;;;;;5035891;28;20140;-58
2023/12/28 00:48:37;;;;;;;36.10;6.90;;;11.30;99.90;;;;;;5035415;28;20041;-58
2023/12/28 00:51:04;;;;;;;34.17;6.65;;;11.30;99.90;;;;;;5035365;28;20046;-58
2023/12/28 00:53:31;;;;;;;32.33;5.82;;;11.30;99.90;;;;;;5033810;28;20065;-58
2023/12/28 00:55:57;;;;;;;31.38;6.38;;;11.30;99.90;;;;;;5035049;28;20576;-58
2023/12/28 00:58:24;;;;;;;30.58;6.03;;;11.40;99.90;;;;;;5033784;28;20083;-59
2023/12/28 01:00:55;;;;;;;34.38;6.10;;;11.30;99.90;;;;;;5033958;28;20049;-58
2023/12/28 01:03:22;;;;;;;33.05;6.57;;;11.30;99.90;;;;;;5034232;28;20065;-58
2023/12/28 01:05:50;;;;;;;23.90;5.35;;;11.30;99.90;;;;;;5035117;28;20045;-58
2023/12/28 01:08:17;;;;;;;34.58;6.63;;;11.20;99.90;;;;;;5035235;28;20041;-58
2023/12/28 01:10:44;;;;;;;35.17;5.78;;;11.20;99.90;;;;;;5034899;28;20038;-57
2023/12/28 01:13:11;;;;;;;34.78;6.55;;;11.10;99.90;;;;;;5033269;28;20053;-56
2023/12/28 01:15:39;;;;;;;33.20;7.05;;;11.00;99.90;;;;;;5034576;28;20041;-57
2023/12/28 01:18:06;;;;;;;33.50;6.47;;;10.90;99.90;;;;;;5034958;28;20068;-58
2023/12/28 01:20:34;;;;;;;34.42;6.68;;;10.80;99.90;;;;;;5017294;28;20132;-59
2023/12/28 01:23:03;;;;;;;35.35;6.60;;;10.70;99.90;;;;;;5034869;28;20046;-59
2023/12/28 01:25:31;;;;;;;37.22;7.03;;;10.70;99.90;;;;;;5034595;28;20045;-57
2023/12/28 01:27:58;;;;;;;31.35;6.55;;;10.60;99.90;;;;;;5033346;28;20045;-55
2023/12/28 01:30:26;;;;;;;41.50;6.82;;;10.70;99.90;;;;;;5034927;28;20501;-58
2023/12/28 01:32:53;;;;;;;39.42;7.68;;;10.70;99.90;;;;;;5033907;28;20454;-59
2023/12/28 01:35:20;;;;;;;35.95;6.28;;;10.70;99.90;;;;;;5033637;28;20128;-58
2023/12/28 01:37:47;;;;;;;36.25;6.63;;;10.80;99.90;;;;;;5035203;28;20072;-58
2023/12/28 01:40:13;;;;;;;41.38;7.00;;;10.80;99.90;;;;;;5033375;28;20041;-58
2023/12/28 01:42:40;;;;;;;35.08;6.35;;;10.80;99.90;;;;;;5034803;28;20072;-61
2023/12/28 01:45:08;;;;;;;40.72;7.95;;;10.80;99.90;;;;;;5033281;28;20137;-62
2023/12/28 01:47:35;;;;;;;34.47;6.85;;;10.80;99.90;;;;;;5034592;28;20045;-61
2023/12/28 01:50:02;;;;;;;33.10;6.07;;;10.80;99.90;;;;;;5034313;28;20057;-61
2023/12/28 01:52:29;;;;;;;38.28;7.13;;;10.80;99.90;;;;;;5034288;28;20443;-61
2023/12/28 01:54:56;;;;;;;35.53;6.70;;;10.80;99.90;;;;;;5033028;28;20041;-61
2023/12/28 01:57:24;;;;;;;39.92;6.80;;;10.80;99.90;;;;;;5034483;28;20045;-62
2023/12/28 01:59:50;;;;;;;41.38;7.18;;;10.80;99.90;;;;;;5033777;28;20049;-61
2023/12/28 02:02:17;;;;;;;44.42;8.95;;;10.90;99.90;;;;;;5033135;28;20433;-62
2023/12/28 02:04:44;;;;;;;38.35;7.15;;;10.90;99.90;;;;;;5033117;28;20038;-61
2023/12/28 02:07:11;;;;;;;35.85;6.90;;;11.00;99.90;;;;;;5033818;28;20048;-63
2023/12/28 02:09:38;;;;;;;42.08;7.45;;;11.00;99.90;;;;;;5032697;28;20042;-62
2023/12/28 02:12:05;;;;;;;34.00;7.68;;;11.00;99.90;;;;;;5033965;28;20120;-62
2023/12/28 02:14:32;;;;;;;33.58;6.70;;;11.10;99.90;;;;;;5016243;28;20072;-62
2023/12/28 02:16:59;;;;;;;35.15;7.57;;;11.20;99.90;;;;;;5034112;28;20588;-62
2023/12/28 02:19:26;;;;;;;31.98;6.38;;;11.20;99.90;;;;;;5032401;28;20047;-62
2023/12/28 02:21:53;;;;;;;34.70;6.32;;;11.20;99.90;;;;;;5032384;28;20068;-59
2023/12/28 02:24:20;;;;;;;39.20;6.72;;;11.20;99.90;;;;;;5032410;28;20574;-57
2023/12/28 02:26:46;;;;;;;35.08;7.15;;;11.20;99.90;;;;;;5032393;28;20057;-57
2023/12/28 02:29:14;;;;;;;42.28;6.93;;;11.20;99.90;;;;;;5033755;28;20048;-57
2023/12/28 02:31:41;;;;;;;34.90;7.03;;;11.20;99.90;;;;;;5032213;28;20099;-57
2023/12/28 02:34:08;;;;;;;35.92;7.00;;;11.20;99.90;;;;;;5031949;28;20041;-58
2023/12/28 02:36:35;;;;;;;37.22;7.15;;;11.20;99.90;;;;;;5033812;28;20045;-59
2023/12/28 02:39:03;;;;;;;34.22;6.32;;;11.20;99.90;;;;;;5033638;28;20052;-58
2023/12/28 02:41:30;;;;;;;32.67;6.20;;;11.20;99.90;;;;;;5033368;28;20048;-57
2023/12/28 02:43:57;;;;;;;31.02;7.22;;;11.10;99.90;;;;;;5032278;28;20049;-58
2023/12/28 02:46:24;;;;;;;34.95;7.50;;;11.10;99.90;;;;;;5032321;28;20051;-58
2023/12/28 02:48:52;;;;;;;43.35;7.47;;;11.00;99.90;;;;;;5032280;28;20049;-59
2023/12/28 02:51:19;;;;;;;34.38;6.72;;;11.00;99.90;;;;;;5031845;28;20042;-58
2023/12/28 02:53:46;;;;;;;28.17;6.55;;;11.00;99.90;;;;;;5032029;28;20069;-57
2023/12/28 02:56:13;;;;;;;35.13;5.88;;;11.00;99.90;;;;;;5033055;28;20072;-54
2023/12/28 02:58:41;;;;;;;31.98;6.15;;;11.00;99.90;;;;;;5031775;28;20037;-62
2023/12/28 03:01:07;;;;;;;25.70;5.50;;;11.00;99.90;;;;;;5031985;28;20128;-61
2023/12/28 03:03:34;;;;;;;29.30;6.40;;;10.90;99.90;;;;;;5033124;28;20124;-61
2023/12/28 03:06:01;;;;;;;31.17;6.45;;;10.90;99.90;;;;;;5032997;28;20041;-56
2023/12/28 03:08:28;;;;;;;36.00;6.82;;;10.90;99.90;;;;;;5033022;28;20045;-57
2023/12/28 03:10:55;;;;;;;35.10;5.82;;;10.90;99.90;;;;;;5031467;28;20069;-57
2023/12/28 03:13:22;;;;;;;30.98;5.70;;;11.00;99.90;;;;;;5031156;28;20053;-57
2023/12/28 03:15:49;;;;;;;34.17;7.07;;;11.00;99.90;;;;;;5031458;28;20467;-57
2023/12/28 03:18:15;;;;;;;31.15;7.43;;;11.10;99.90;;;;;;5032784;28;20037;-57
2023/12/28 03:20:42;;;;;;;30.48;6.22;;;11.00;99.90;;;;;;5039467;28;20103;-54
2023/12/28 03:23:09;;;;;;;33.67;6.43;;;11.00;99.90;;;;;;5039380;28;20045;-57
2023/12/28 03:25:36;;;;;;;35.63;7.13;;;11.00;99.90;;;;;;5039398;28;20038;-57
2023/12/28 03:28:03;;;;;;;35.25;7.07;;;11.00;99.90;;;;;;5039894;28;20045;-57
2023/12/28 03:30:30;;;;;;;41.63;8.98;;;11.00;99.90;;;;;;5039709;28;20442;-62
2023/12/28 03:32:57;;;;;;;38.78;7.53;;;11.00;99.90;;;;;;5039392;28;20037;-62
2023/12/28 03:35:24;;;;;;;36.08;6.88;;;11.00;99.90;;;;;;5037907;28;20061;-62
2023/12/28 03:37:51;;;;;;;38.88;8.10;;;11.00;99.90;;;;;;5039578;28;20041;-62
2023/12/28 03:40:18;;;;;;;37.90;7.63;;;11.10;99.90;;;;;;5038309;28;20459;-62
2023/12/28 03:42:46;;;;;;;39.00;8.15;;;11.10;99.90;;;;;;5038112;28;20042;-62
2023/12/28 03:45:13;;;;;;;29.73;6.93;;;11.10;99.90;;;;;;5039345;28;20490;-62
2023/12/28 03:47:40;;;;;;;38.58;6.95;;;11.20;99.90;;;;;;5039486;28;20044;-62
2023/12/28 03:50:06;;;;;;;31.20;6.40;;;11.20;99.90;;;;;;5039497;28;20429;-62
2023/12/28 03:52:33;;;;;;;34.22;7.03;;;11.20;99.90;;;;;;5039210;28;20065;-62
2023/12/28 03:55:00;;;;;;;39.42;6.88;;;11.20;99.90;;;;;;5038194;28;20140;-62
2023/12/28 03:57:27;;;;;;;37.38;7.30;;;11.20;99.90;;;;;;5037761;28;20045;-62
2023/12/28 03:59:54;;;;;;;34.92;6.05;;;11.20;99.90;;;;;;5039134;28;20046;-62
2023/12/28 04:02:21;;;;;;;36.67;8.00;;;11.20;99.90;;;;;;5039327;28;20056;-62
2023/12/28 04:04:47;;;;;;;37.88;6.90;;;11.10;99.90;;;;;;5039178;28;20038;-62
2023/12/28 04:07:16;;;;;;;40.47;8.30;;;11.10;99.90;;;;;;5037896;28;20064;-62
2023/12/28 04:09:42;;;;;;;41.40;8.20;;;11.10;99.90;;;;;;5039181;28;20053;-62
2023/12/28 04:12:09;;;;;;;41.03;7.95;;;11.10;99.90;;;;;;5039303;28;20121;-62
2023/12/28 04:14:36;;;;;;;46.33;9.07;;;11.10;99.90;;;;;;5037526;28;20054;-62
2023/12/28 04:17:03;;;;;;;43.97;9.73;;;11.20;99.90;;;;;;5037542;28;20426;-62
2023/12/28 04:19:30;;;;;;;47.75;9.05;;;11.20;99.90;;;;;;5037752;28;20048;-62
2023/12/28 04:21:59;;;;;;;41.13;7.93;;;11.10;99.90;;;;;;5037395;28;20524;-62
2023/12/28 04:24:26;;;;;;;43.13;8.13;;;11.20;99.90;;;;;;5037266;28;20050;-62
2023/12/28 04:26:53;;;;;;;42.35;8.18;;;11.30;99.90;;;;;;5020874;28;20041;-62
2023/12/28 04:29:21;;;;;;;40.72;7.38;;;11.30;99.90;;;;;;5037383;28;20053;-62
2023/12/28 04:31:47;;;;;;;48.70;8.57;;;11.30;99.90;;;;;;5033973;28;20039;-62
2023/12/28 04:34:14;;;;;;;37.67;8.57;;;11.30;99.90;;;;;;5034392;28;20495;-62
2023/12/28 04:36:42;;;;;;;35.88;7.65;;;11.40;99.90;;;;;;5034600;28;20076;-62
2023/12/28 04:39:09;;;;;;;45.10;9.73;;;11.40;99.90;;;;;;5034481;28;20044;-62
2023/12/28 04:41:36;;;;;;;35.85;7.55;;;11.40;99.90;;;;;;5035756;28;20041;-62
2023/12/28 04:44:03;;;;;;;33.97;6.97;;;11.40;99.90;;;;;;5034448;28;20060;-61
2023/12/28 04:46:30;;;;;;;34.42;7.40;;;11.30;99.90;;;;;;5034409;28;20041;-61
2023/12/28 04:48:56;;;;;;;37.42;7.88;;;11.30;99.90;;;;;;5034239;28;20045;-61
2023/12/28 04:51:24;;;;;;;33.28;7.72;;;11.30;99.90;;;;;;5034125;28;20060;-61
2023/12/28 04:53:51;;;;;;;32.65;6.32;;;11.30;99.90;;;;;;5034107;28;20065;-62
2023/12/28 04:56:18;;;;;;;36.53;7.55;;;11.30;99.90;;;;;;5034456;28;20095;-61
2023/12/28 04:58:46;;;;;;;39.78;6.90;;;11.30;99.90;;;;;;5034038;28;20133;-61
2023/12/28 05:01:12;;;;;;;30.17;5.82;;;11.30;99.90;;;;;;5035461;28;20393;-61
2023/12/28 05:03:39;;;;;;;35.05;6.40;;;11.30;99.90;;;;;;5035251;28;20073;-62
2023/12/28 05:06:06;;;;;;;39.83;7.10;;;11.30;99.90;;;;;;5033967;28;20037;-62
2023/12/28 05:08:33;;;;;;;32.42;5.45;;;11.30;99.90;;;;;;5035151;28;20045;-62
2023/12/28 05:11:01;;;;;;;32.80;6.35;;;11.30;99.90;;;;;;5033976;28;20041;-62
2023/12/28 05:13:27;;;;;;;28.35;5.65;;;11.30;99.90;;;;;;5033540;28;20046;-62
2023/12/28 05:15:54;;;;;;;36.47;7.18;;;11.20;99.90;;;;;;5033884;28;20037;-62
2023/12/28 05:18:21;;;;;;;31.70;6.57;;;11.20;99.90;;;;;;5035488;28;20046;-62
2023/12/28 05:20:48;;;;;;;35.63;6.13;;;11.10;99.90;;;;;;5033986;28;20033;-62
2023/12/28 05:23:15;;;;;;;35.83;6.53;;;11.10;99.90;;;;;;5035060;28;20080;-62
2023/12/28 05:25:42;;;;;;;33.85;6.63;;;11.10;99.90;;;;;;5034877;28;20509;-62
2023/12/28 05:28:09;;;;;;;30.45;6.03;;;11.10;99.90;;;;;;5033544;28;20100;-62
2023/12/28 05:30:35;;;;;;;33.45;6.65;;;11.10;99.90;;;;;;5033826;28;20052;-62
2023/12/28 05:33:02;;;;;;;36.03;7.20;;;11.10;99.90;;;;;;5034742;28;20040;-61
2023/12/28 05:35:29;;;;;;;33.28;7.05;;;11.10;99.90;;;;;;5034864;28;20069;-61
2023/12/28 05:37:56;;;;;;;35.15;7.65;;;11.10;99.90;;;;;;5035009;28;20113;-61
2023/12/28 05:40:23;;;;;;;30.98;5.65;;;11.10;99.90;;;;;;5034311;28;20116;-61
2023/12/28 05:42:50;;;;;;;38.10;6.95;;;11.10;99.90;;;;;;5033675;28;20128;-61
2023/12/28 05:45:17;;;;;;;32.97;7.03;;;11.10;99.90;;;;;;5034646;28;20073;-61
2023/12/28 05:47:43;;;;;;;32.45;6.30;;;11.20;99.90;;;;;;5034935;28;20048;-61
2023/12/28 05:50:10;;;;;;;34.75;7.00;;;11.20;99.90;;;;;;5034222;28;20049;-61
2023/12/28 05:52:37;;;;;;;31.23;6.30;;;11.30;99.90;;;;;;5034368;28;20045;-61
2023/12/28 05:55:04;;;;;;;38.22;7.25;;;11.30;99.90;;;;;;5034540;28;20041;-61
2023/12/28 05:57:31;;;;;;;33.72;7.28;;;11.30;99.90;;;;;;5034368;28;20128;-61
2023/12/28 05:59:58;;;;;;;33.72;6.68;;;11.40;99.90;;;;;;5016505;28;20047;-61
2023/12/28 06:02:25;;;;;;;35.83;7.53;;;11.30;99.90;;;;;;5034060;28;20096;-62
2023/12/28 06:04:51;;;;;;;39.72;7.95;;;11.30;99.90;;;;;;5033885;28;20041;-61
2023/12/28 06:07:19;;;;;;;38.70;7.25;;;11.30;99.90;;;;;;5033035;28;20493;-61
2023/12/28 06:09:46;;;;;;;35.80;7.18;;;11.20;99.90;;;;;;5034213;28;20490;-61
2023/12/28 06:12:12;;;;;;;41.65;7.78;;;11.20;99.90;;;;;;5034046;28;20118;-61
2023/12/28 06:14:39;;;;;;;32.83;6.50;;;11.20;99.90;;;;;;5033432;28;20062;-61
2023/12/28 06:17:06;;;;;;;32.22;6.97;;;11.20;99.90;;;;;;5034028;28;20046;-61
2023/12/28 06:19:33;;;;;;;29.60;6.18;;;11.20;99.90;;;;;;5033993;28;20435;-61
2023/12/28 06:22:00;;;;;;;23.88;5.22;;;11.20;99.90;;;;;;5032642;28;20136;-61
2023/12/28 06:24:27;;;;;;;30.20;6.00;;;11.20;99.90;;;;;;5032468;28;20140;-61
2023/12/28 06:26:54;;;;;;;28.23;4.95;;;11.10;99.90;;;;;;5033753;28;20041;-61
2023/12/28 06:29:21;;;;;;;23.02;5.13;;;10.90;99.90;;;;;;5032609;28;20046;-61
2023/12/28 06:31:48;;;;;;;23.58;5.30;;;10.80;99.90;;;;;;5033889;28;20045;-62
2023/12/28 06:34:15;;;;;;;33.05;6.10;;;10.80;99.90;;;;;;5033406;28;20037;-61
2023/12/28 06:36:43;;;;;;;26.35;5.65;;;10.70;99.90;;;;;;5032651;28;20041;-61
2023/12/28 06:39:10;;;;;;;27.13;5.45;;;10.70;99.90;;;;;;5033967;28;20037;-61
2023/12/28 06:41:37;;;;;;;27.65;6.30;;;10.60;99.90;;;;;;5033447;28;20124;-61
2023/12/28 06:44:04;;;;;;;24.05;5.53;;;10.60;99.90;;;;;;5034206;28;20037;-61
2023/12/28 06:46:31;;;;;;;24.52;4.85;;;10.50;99.90;;;;;;5033421;28;20402;-58
2023/12/28 06:48:58;;;;;;;23.90;4.85;;;10.50;99.90;;;;;;5033402;28;20044;-57
2023/12/28 06:51:26;;;;;;;35.40;6.93;;;10.40;99.90;;;;;;5032165;28;20474;-57
2023/12/28 06:53:53;;;;;;;33.53;6.05;;;10.40;99.90;;;;;;5032963;28;20045;-58
2023/12/28 06:56:20;;;;;;;34.80;6.63;;;10.40;99.90;;;;;;5033298;28;20033;-58
2023/12/28 06:58:46;;;;;;;35.90;6.97;;;10.30;99.90;;;;;;5033071;28;20045;-58
2023/12/28 07:01:13;;;;;;;42.65;6.75;;;10.30;99.90;;;;;;5033094;28;20496;-59
2023/12/28 07:03:40;;;;;;;33.88;7.47;;;10.40;99.90;;;;;;5033541;28;20045;-55
2023/12/28 07:06:08;;;;;;;39.38;7.88;;;10.40;99.90;;;;;;5033429;28;20073;-57
2023/12/28 07:08:35;;;;;;;37.53;7.43;;;10.30;99.90;;;;;;5033136;28;20118;-58
2023/12/28 07:11:03;;;;;;;41.03;8.00;;;10.40;99.90;;;;;;5033381;28;20053;-58
2023/12/28 07:13:31;;;;;;;47.08;8.68;;;10.40;99.90;;;;;;5032593;28;20053;-57
2023/12/28 07:15:57;;;;;;;43.50;8.30;;;10.40;99.90;;;;;;5032176;28;20065;-57
2023/12/28 07:18:26;;;;;;;40.90;8.32;;;10.40;99.90;;;;;;5032979;28;20444;-57
2023/12/28 07:20:54;;;;;;;41.95;7.70;;;10.40;99.90;;;;;;5033324;28;20375;-57
2023/12/28 07:23:21;;;;;;;48.55;7.85;;;10.40;99.90;;;;;;5032991;28;20133;-58
2023/12/28 07:25:48;;;;;;;44.28;7.93;;;10.40;99.90;;;;;;5033251;28;20060;-58
2023/12/28 07:28:15;;;;;;;42.45;8.18;;;10.40;99.90;;;;;;5033016;28;20119;-58
2023/12/28 07:30:41;;;;;;;45.97;8.40;;;10.40;99.90;;;;;;5032987;28;20048;-57
2023/12/28 07:33:09;;;;;;;41.92;8.93;;;10.40;99.90;;;;;;5032912;28;20394;-58
2023/12/28 07:35:36;;;;;;;43.63;8.50;;;10.50;99.90;;;;;;5031499;28;20478;-58
2023/12/28 07:38:02;;;;;;;43.72;9.10;;;10.50;99.90;;;;;;5031624;28;20041;-59
2023/12/28 07:40:29;;;;;;;44.63;8.82;;;10.50;99.90;;;;;;5031739;28;20046;-57
2023/12/28 07:42:56;;;;;;;45.78;8.63;;;10.50;99.90;;;;;;5032901;28;20042;-58
2023/12/28 07:45:24;;;;;;;46.45;7.68;;;10.50;99.90;;;;;;5032993;28;20424;-59
2023/12/28 07:47:51;;;;;;;49.10;8.55;;;10.50;99.90;;;;;;5031728;28;20433;-57
2023/12/28 07:50:19;;;;;;;40.28;8.65;;;10.50;99.90;;;;;;5033168;28;20359;-57
2023/12/28 07:52:49;;;;;;;44.13;8.55;;;10.50;99.90;;;;;;5033098;28;20065;-57
2023/12/28 07:55:16;;;;;;;48.72;8.98;;;10.50;99.90;;;;;;5032853;28;20045;-58
2023/12/28 07:57:43;;;;;;;44.95;7.88;;;10.40;99.90;;;;;;5031751;28;20071;-57
2023/12/28 08:00:10;;;;;;;43.35;7.88;;;10.40;99.90;;;;;;5032756;28;20517;-58
2023/12/28 08:02:36;;;;;;;40.60;9.07;;;10.40;99.90;;;;;;5032756;28;20056;-57
2023/12/28 08:05:03;;;;;;;43.97;9.18;;;10.40;99.90;;;;;;5032634;28;20056;-60
2023/12/28 08:07:30;;;;;;;41.35;7.05;;;10.40;99.90;;;;;;5035851;28;20521;-58
2023/12/28 08:09:57;;;;;;;40.70;8.77;;;10.40;99.90;;;;;;5035350;28;20423;-56
2023/12/28 08:12:27;;;;;;;45.50;8.20;;;10.40;99.90;;;;;;5036355;28;20063;-57
2023/12/28 08:14:54;;;;;;;40.28;8.75;;;10.40;99.90;;;;;;5036043;28;20045;-58
2023/12/28 08:17:21;;;;;;;53.80;9.55;;;10.40;99.90;;;;;;5036492;28;20049;-57
2023/12/28 08:19:48;;;;;;;41.80;8.15;;;10.40;99.90;;;;;;5036544;28;20037;-56
2023/12/28 08:22:15;;;;;;;41.22;8.07;;;10.40;99.90;;;;;;5036091;28;20140;-57
2023/12/28 08:24:42;;;;;;;51.80;8.48;;;10.40;99.90;;;;;;5035001;28;20049;-57
2023/12/28 08:27:08;;;;;;;45.85;7.60;;;10.40;99.90;;;;;;5036157;28;20052;-58
2023/12/28 08:29:36;;;;;;;40.10;7.63;;;10.40;99.90;;;;;;5035050;28;20041;-57
2023/12/28 08:32:02;;;;;;;51.05;8.45;;;10.40;99.90;;;;;;5034500;28;20034;-57
2023/12/28 08:34:29;;;;;;;42.47;7.68;;;10.40;99.90;;;;;;5036084;28;20386;-57
2023/12/28 08:36:57;;;;;;;40.22;7.85;;;10.40;99.90;;;;;;5036566;28;20080;-57
2023/12/28 08:39:24;;;;;;;47.40;9.38;;;10.40;99.90;;;;;;5036153;28;20049;-55
2023/12/28 08:41:50;;;;;;;40.40;7.20;;;10.40;99.90;;;;;;5036135;28;20045;-57
2023/12/28 08:44:17;;;;;;;38.88;7.88;;;10.40;99.90;;;;;;5035589;28;20534;-57
2023/12/28 08:46:45;;;;;;;38.20;7.72;;;10.40;99.90;;;;;;5035550;28;20034;-55
2023/12/28 08:49:15;;;;;;;44.80;7.93;;;10.50;99.90;;;;;;5035850;28;20375;-57
2023/12/28 08:51:42;;;;;;;37.17;7.45;;;10.50;99.90;;;;;;5036228;28;20513;-58
2023/12/28 08:54:11;;;;;;;44.33;7.90;;;10.50;99.90;;;;;;5035602;28;20060;-55
2023/12/28 08:56:38;;;;;;;42.63;8.85;;;10.50;99.90;;;;;;5034875;28;20073;-58
2023/12/28 08:59:04;;;;;;;48.55;8.60;;;10.50;99.90;;;;;;5035467;28;20045;-55
2023/12/28 09:01:31;;;;;;;48.50;9.02;;;10.50;99.90;;;;;;5034068;28;20057;-57
2023/12/28 09:03:59;;;;;;;42.47;7.80;;;10.50;99.90;;;;;;5035927;28;20129;-56
2023/12/28 09:06:27;;;;;;;43.15;9.48;;;10.50;99.90;;;;;;5017861;28;20363;-62
2023/12/28 09:08:54;;;;;;;49.10;9.13;;;10.60;99.90;;;;;;5034150;28;20037;-61
2023/12/28 09:11:21;;;;;;;40.60;8.90;;;10.60;99.90;;;;;;5034438;28;20045;-61
2023/12/28 09:13:48;;;;;;;43.70;7.97;;;10.60;99.90;;;;;;5035110;28;20061;-61
2023/12/28 09:16:15;;;;;;;41.03;8.52;;;10.60;99.90;;;;;;5034286;28;20128;-61
2023/12/28 09:18:42;;;;;;;39.78;7.05;;;10.70;99.90;;;;;;5035115;28;20050;-61
2023/12/28 09:21:10;;;;;;;41.25;8.95;;;10.70;99.90;;;;;;5035554;28;20091;-61
2023/12/28 09:23:37;;;;;;;41.38;7.10;;;10.80;99.90;;;;;;5033901;28;20048;-61
2023/12/28 09:26:04;;;;;;;43.22;9.50;;;10.90;99.90;;;;;;5035275;28;20045;-61
2023/12/28 09:28:31;;;;;;;43.30;9.32;;;11.00;99.90;;;;;;5034918;28;20103;-61
2023/12/28 09:30:57;;;;;;;38.67;7.45;;;11.00;99.90;;;;;;5033844;28;20454;-61
2023/12/28 09:33:24;;;;;;;35.78;7.15;;;11.10;99.90;;;;;;5034703;28;20045;-61
2023/12/28 09:35:53;;;;;;;32.08;6.32;;;11.20;99.90;;;;;;5033590;28;20061;-61
2023/12/28 09:38:21;;;;;;;38.92;8.52;;;11.20;99.90;;;;;;5034950;28;20037;-62
2023/12/28 09:40:48;;;;;;;40.63;7.80;;;11.20;99.90;;;;;;5035082;28;20458;-62
2023/12/28 09:43:15;;;;;;;31.15;6.95;;;11.30;99.90;;;;;;5034856;28;20132;-62
2023/12/28 09:45:41;;;;;;;33.03;7.55;;;11.30;99.90;;;;;;5034965;28;20052;-62
2023/12/28 09:48:09;;;;;;;34.90;6.88;;;11.30;99.90;;;;;;5034811;28;20049;-62
2023/12/28 09:50:35;;;;;;;36.42;6.60;;;11.30;99.90;;;;;;5034589;28;20125;-62
2023/12/28 09:53:02;;;;;;;39.47;7.53;;;11.30;99.90;;;;;;5034550;28;20052;-61
2023/12/28 09:55:29;;;;;;;37.88;6.47;;;11.30;99.90;;;;;;5033884;28;20049;-61
2023/12/28 09:57:56;;;;;;;36.50;6.55;;;11.40;99.90;;;;;;5025550;28;20034;-62
2023/12/28 10:00:23;;;;;;;32.33;7.13;;;11.40;99.90;;;;;;5031307;28;20138;-62
2023/12/28 10:02:50;;;;;;;37.90;7.32;;;11.40;99.90;;;;;;5033697;28;20052;-62
2023/12/28 10:05:16;;;;;;;37.45;7.55;;;11.50;99.90;;;;;;5033387;28;20049;-62
2023/12/28 10:07:43;;;;;;;30.80;6.32;;;11.50;99.90;;;;;;5021339;28;20411;-62
2023/12/28 10:10:14;;;;;;;36.40;7.75;;;11.50;99.90;;;;;;5031491;28;20042;-63
2023/12/28 10:12:40;;;;;;;31.58;6.05;;;11.60;99.90;;;;;;5027427;28;20478;-64
2023/12/28 10:15:07;;;;;;;33.65;7.57;;;11.60;99.90;;;;;;5021375;28;20057;-64
2023/12/28 10:17:37;;;;;;;31.17;6.60;;;11.60;99.90;;;;;;5010421;28;20426;-64
2023/12/28 10:20:07;;;;;;;30.02;5.75;;;11.70;99.90;;;;;;5024362;28;20120;-65
2023/12/28 10:22:34;;;;;;;34.63;6.88;;;11.70;99.90;;;;;;5020888;28;20037;-65
2023/12/28 10:25:01;;;;;;;28.95;6.00;;;11.70;99.90;;;;;;5013566;28;20050;-64
2023/12/28 10:27:28;;;;;;;30.80;6.57;;;11.70;99.90;;;;;;5018596;28;20037;-64
2023/12/28 10:29:55;;;;;;;30.08;5.95;;;11.70;99.90;;;;;;5022567;28;20077;-65
2023/12/28 10:32:24;;;;;;;31.65;6.97;;;11.70;99.90;;;;;;5014223;28;20045;-65
2023/12/28 10:34:52;;;;;;;32.15;6.85;;;11.80;99.90;;;;;;5014009;28;20191;-65
2023/12/28 10:37:19;;;;;;;27.42;6.40;;;11.80;99.90;;;;;;5014266;28;20046;-65
2023/12/28 10:39:46;;;;;;;34.83;6.85;;;11.80;99.90;;;;;;5014118;28;20112;-65
2023/12/28 10:42:14;;;;;;;30.45;6.20;;;11.80;99.90;;;;;;5014234;28;20100;-65
2023/12/28 10:44:40;;;;;;;32.25;6.22;;;11.80;99.90;;;;;;5013748;28;20084;-65
2023/12/28 10:47:07;;;;;;;34.20;6.85;;;11.80;99.90;;;;;;5025442;28;20052;-65
2023/12/28 10:49:34;;;;;;;32.25;6.70;;;11.80;99.90;;;;;;5032823;28;20116;-64
2023/12/28 10:52:01;;;;;;;39.60;6.90;;;11.80;99.90;;;;;;5032836;28;20073;-64
2023/12/28 10:54:28;;;;;;;42.97;7.72;;;11.80;99.90;;;;;;5032411;28;20103;-65
2023/12/28 10:56:55;;;;;;;31.00;7.22;;;11.80;99.90;;;;;;5031657;28;20088;-64
2023/12/28 10:59:22;;;;;;;40.60;7.00;;;11.80;99.90;;;;;;5016347;28;20380;-65
2023/12/28 11:01:48;;;;;;;28.15;6.07;;;11.80;99.90;;;;;;5017707;28;20038;-64
2023/12/28 11:04:15;;;;;;;30.33;6.05;;;11.70;99.90;;;;;;5032169;28;20456;-65
2023/12/28 11:06:43;;;;;;;28.52;5.85;;;11.80;99.90;;;;;;5032282;28;20061;-65
2023/12/28 11:09:10;;;;;;;32.88;6.53;;;11.60;99.90;;;;;;5032379;28;20141;-64
2023/12/28 11:11:37;;;;;;;30.23;6.43;;;11.60;99.90;;;;;;5032591;28;20038;-66
2023/12/28 11:14:03;;;;;;;42.45;7.65;;;11.50;99.90;;;;;;5032207;28;20144;-63
2023/12/28 11:16:30;;;;;;;36.55;7.20;;;11.40;99.90;;;;;;5031777;28;20041;-64
2023/12/28 11:18:57;;;;;;;36.30;7.10;;;11.40;99.90;;;;;;5032890;28;20038;-64
2023/12/28 11:21:24;;;;;;;31.60;6.18;;;11.40;99.90;;;;;;5032506;28;20120;-64
2023/12/28 11:23:51;;;;;;;33.35;6.95;;;11.40;99.90;;;;;;5031611;28;20511;-67
2023/12/28 11:26:18;;;;;;;36.03;7.90;;;11.50;99.90;;;;;;5017589;28;20045;-65
2023/12/28 11:28:45;;;;;;;35.50;6.40;;;11.60;99.90;;;;;;5031934;28;20128;-65
2023/12/28 11:31:11;;;;;;;34.13;5.97;;;11.70;99.90;;;;;;5031884;28;20045;-64
2023/12/28 11:33:38;;;;;;;30.33;5.93;;;11.70;99.90;;;;;;5030382;28;20876;-65
2023/12/28 11:36:05;;;;;;;25.55;6.10;;;11.70;99.90;;;;;;5016418;28;20041;-65
2023/12/28 11:38:32;;;;;;;34.67;6.50;;;11.80;99.90;;;;;;5013012;28;20038;-65
2023/12/28 11:40:59;;;;;;;32.47;6.30;;;11.90;99.90;;;;;;5015268;28;20454;-65
2023/12/28 11:43:26;;;;;;;26.45;5.10;;;11.90;99.90;;;;;;5016944;28;20057;-65
2023/12/28 11:45:52;;;;;;;33.42;6.63;;;12.00;99.90;;;;;;5019581;28;20554;-65
2023/12/28 11:48:19;;;;;;;27.83;5.75;;;11.90;99.90;;;;;;5035515;28;20042;-64
2023/12/28 11:50:46;;;;;;;31.80;5.55;;;11.90;99.90;;;;;;5035638;28;20076;-64
2023/12/28 11:53:13;;;;;;;28.70;5.63;;;11.90;99.90;;;;;;5034751;28;20544;-65
2023/12/28 11:55:40;;;;;;;30.67;6.47;;;12.00;99.90;;;;;;5026619;28;20048;-65
2023/12/28 11:58:07;;;;;;;30.40;5.90;;;12.00;99.90;;;;;;5016723;28;20558;-64
2023/12/28 12:00:33;;;;;;;24.90;5.15;;;12.00;99.90;;;;;;5021035;28;20037;-64
2023/12/28 12:03:00;;;;;;;24.83;4.53;;;12.00;99.90;;;;;;5016520;28;20041;-64
2023/12/28 12:05:28;;;;;;;25.85;5.60;;;12.10;99.90;;;;;;5030585;28;20483;-64
2023/12/28 12:07:54;;;;;;;26.67;5.43;;;12.20;99.90;;;;;;5035494;28;20042;-64
2023/12/28 12:10:21;;;;;;;22.90;5.65;;;12.20;99.90;;;;;;5034359;28;20095;-64
2023/12/28 12:12:48;;;;;;;26.50;5.57;;;12.30;99.90;;;;;;5021719;28;20049;-64
2023/12/28 12:15:15;;;;;;;24.85;5.85;;;12.30;99.90;;;;;;5029653;28;20509;-64
2023/12/28 12:17:42;;;;;;;28.05;5.72;;;12.30;99.90;;;;;;5035257;28;20034;-64
2023/12/28 12:20:09;;;;;;;33.88;6.47;;;12.40;99.90;;;;;;5015997;28;20044;-65
2023/12/28 12:22:36;;;;;;;25.88;5.22;;;12.40;99.90;;;;;;5028748;28;20554;-65
2023/12/28 12:25:03;;;;;;;23.10;4.95;;;12.50;99.90;;;;;;5014508;28;20041;-65
2023/12/28 12:27:30;;;;;;;24.52;5.35;;;12.50;99.90;;;;;;5015987;28;20052;-65
2023/12/28 12:29:57;;;;;;;30.10;5.78;;;12.50;99.90;;;;;;5035192;28;20136;-64
2023/12/28 12:32:24;;;;;;;28.05;6.15;;;12.50;99.90;;;;;;5034651;28;20063;-64
2023/12/28 12:34:51;;;;;;;28.42;5.88;;;12.50;99.90;;;;;;5034636;28;20043;-64